Time;durP1;ratioP1;P1;durP2;ratioP2;P2;SDS_P1;SDS_P2;PMS_P1;PMS_P2;Temp;Humidity;BMP_temperature;BMP_pressure;BME280_temperature;BME280_humidity;BME280_pressure;Samples;Min_cycle;Max_cycle;Signal;HPM_P1;HPM_P2
2023/07/28 00:01:18;;;;;;;6.45;2.30;;;;;;;;;;5053597;28;20399;-83
2023/07/28 00:04:06;;;;;;;3.28;2.10;;;;;;;;;;5054973;28;20041;-82
2023/07/28 00:06:52;;;;;;;4.93;1.90;;;;;;;;;;5060708;28;20082;-83
2023/07/28 00:09:37;;;;;;;2.45;2.00;;;;;;;;;;5053950;28;20049;-83
2023/07/28 00:12:22;;;;;;;4.57;1.95;;;;;;;;;;5053820;28;20144;-83
2023/07/28 00:15:08;;;;;;;3.65;2.60;;;;;;;;;;5046045;28;20049;-83
2023/07/28 00:17:53;;;;;;;4.10;2.10;;;;;;;;;;5054957;28;20045;-83
2023/07/28 00:20:39;;;;;;;2.83;2.15;;;;;;;;;;5053591;28;20053;-83
2023/07/28 00:23:24;;;;;;;3.13;2.00;;;;;;;;;;5060720;28;20041;-83
2023/07/28 00:26:10;;;;;;;2.17;1.98;;;;;;;;;;5060611;28;20061;-83
2023/07/28 00:28:57;;;;;;;6.03;2.10;;;;;;;;;;5054258;28;20037;-83
2023/07/28 00:31:42;;;;;;;4.43;2.30;;;;;;;;;;5059333;28;20045;-83
2023/07/28 00:34:28;;;;;;;2.65;2.13;;;;;;;;;;5054598;28;20045;-82
2023/07/28 00:37:14;;;;;;;2.95;2.50;;;;;;;;;;5064090;28;20037;-80
2023/07/28 00:40:00;;;;;;;4.72;2.30;;;;;;;;;;5060997;28;20476;-82
2023/07/28 00:42:47;;;;;;;3.42;2.10;;;;;;;;;;5060846;28;20049;-84
2023/07/28 00:45:34;;;;;;;5.25;2.25;;;;;;;;;;5054894;28;20049;-83
2023/07/28 00:48:20;;;;;;;2.38;2.17;;;;;;;;;;5060439;28;20052;-83
2023/07/28 00:51:06;;;;;;;2.70;2.40;;;;;;;;;;5062377;28;20041;-84
2023/07/28 00:53:53;;;;;;;7.13;2.47;;;;;;;;;;5060780;28;20045;-84
2023/07/28 00:56:39;;;;;;;3.08;2.28;;;;;;;;;;5065322;28;20045;-84
2023/07/28 00:59:24;;;;;;;3.33;2.38;;;;;;;;;;5066534;28;20049;-83
2023/07/28 01:02:10;;;;;;;4.40;2.30;;;;;;;;;;5066350;28;20052;-84
2023/07/28 01:04:56;;;;;;;4.22;2.40;;;;;;;;;;5059413;28;20044;-83
2023/07/28 01:08:03;;;;;;;3.03;2.47;;;;;;;;;;5051577;28;20079;-84
2023/07/28 01:10:48;;;;;;;3.40;2.83;;;;;;;;;;5059596;28;20049;-83
2023/07/28 01:13:34;;;;;;;4.03;2.40;;;;;;;;;;5055794;28;20049;-83
2023/07/28 01:16:20;;;;;;;5.10;2.53;;;;;;;;;;5059267;28;20045;-84
2023/07/28 01:19:06;;;;;;;3.97;2.60;;;;;;;;;;5052506;28;20045;-83
2023/07/28 01:22:17;;;;;;;2.78;2.30;;;;;;;;;;5053465;28;20045;-83
2023/07/28 01:25:09;;;;;;;2.80;2.20;;;;;;;;;;5053526;28;20045;-83
2023/07/28 01:27:56;;;;;;;4.38;2.33;;;;;;;;;;5045365;28;20045;-83
2023/07/28 01:30:41;;;;;;;4.90;2.47;;;;;;;;;;5059342;28;20053;-83
2023/07/28 01:33:27;;;;;;;4.13;2.63;;;;;;;;;;5053558;28;20052;-83
2023/07/28 01:36:12;;;;;;;5.72;2.50;;;;;;;;;;5052697;28;20041;-83
2023/07/28 01:38:58;;;;;;;4.13;2.30;;;;;;;;;;5059084;28;20053;-83
2023/07/28 01:41:44;;;;;;;5.30;2.60;;;;;;;;;;5054404;28;20041;-82
2023/07/28 01:44:29;;;;;;;3.53;2.80;;;;;;;;;;5057877;28;20041;-82
2023/07/28 01:47:15;;;;;;;3.97;2.58;;;;;;;;;;5063799;28;20056;-82
2023/07/28 01:50:01;;;;;;;2.85;2.55;;;;;;;;;;5057485;28;20037;-82
2023/07/28 01:52:46;;;;;;;3.00;2.70;;;;;;;;;;5057229;28;20056;-83
2023/07/28 01:55:32;;;;;;;8.57;3.00;;;;;;;;;;5063223;28;20049;-82
2023/07/28 01:58:17;;;;;;;3.38;2.70;;;;;;;;;;5056424;28;20045;-82
2023/07/28 02:01:03;;;;;;;6.18;2.65;;;;;;;;;;5062634;28;20392;-82
2023/07/28 02:03:48;;;;;;;5.35;2.58;;;;;;;;;;5049533;28;20041;-83
2023/07/28 02:06:34;;;;;;;4.72;2.40;;;;;;;;;;5062821;28;20404;-83
2023/07/28 02:09:20;;;;;;;4.63;2.58;;;;;;;;;;5063679;28;20369;-82
2023/07/28 02:12:06;;;;;;;6.35;2.35;;;;;;;;;;5065166;28;20048;-83
2023/07/28 02:14:51;;;;;;;3.38;2.40;;;;;;;;;;5063359;28;20049;-83
2023/07/28 02:17:36;;;;;;;2.70;2.47;;;;;;;;;;5057543;28;20041;-84
2023/07/28 02:20:22;;;;;;;4.03;2.30;;;;;;;;;;5062934;28;20052;-84
2023/07/28 02:23:07;;;;;;;5.32;2.60;;;;;;;;;;5052266;28;20045;-84
2023/07/28 02:25:52;;;;;;;5.45;2.70;;;;;;;;;;5064408;28;20049;-86
2023/07/28 02:28:38;;;;;;;7.68;2.42;;;;;;;;;;5065596;28;20044;-83
2023/07/28 02:31:23;;;;;;;3.65;2.42;;;;;;;;;;5057438;28;20049;-84
2023/07/28 02:34:09;;;;;;;4.50;2.70;;;;;;;;;;5062602;28;20048;-85
2023/07/28 02:36:55;;;;;;;2.90;2.60;;;;;;;;;;5048381;28;20041;-82
2023/07/28 02:39:40;;;;;;;2.92;2.47;;;;;;;;;;5056912;28;20057;-82
2023/07/28 02:42:27;;;;;;;5.80;3.05;;;;;;;;;;5061686;28;20045;-82
2023/07/28 02:45:12;;;;;;;4.57;2.70;;;;;;;;;;5056381;28;20053;-82
2023/07/28 02:47:57;;;;;;;5.63;2.67;;;;;;;;;;5061779;28;20416;-82
2023/07/28 02:50:46;;;;;;;4.00;2.55;;;;;;;;;;5056096;28;20041;-84
2023/07/28 02:53:32;;;;;;;3.13;2.60;;;;;;;;;;5061207;28;20489;-85
2023/07/28 02:56:17;;;;;;;4.60;2.55;;;;;;;;;;5061266;28;20496;-84
2023/07/28 02:59:04;;;;;;;7.53;2.65;;;;;;;;;;5047888;28;20048;-83
2023/07/28 03:01:51;;;;;;;2.45;2.25;;;;;;;;;;5061806;28;20049;-84
2023/07/28 03:04:36;;;;;;;3.08;2.65;;;;;;;;;;5047966;28;20040;-84
2023/07/28 03:07:28;;;;;;;3.30;2.70;;;;;;;;;;5056325;28;20045;-83
2023/07/28 03:10:18;;;;;;;4.97;2.60;;;;;;;;;;5057298;28;20057;-84
2023/07/28 03:13:04;;;;;;;3.00;2.70;;;;;;;;;;5047987;28;20468;-84
2023/07/28 03:15:50;;;;;;;4.25;2.90;;;;;;;;;;5055816;28;20041;-84
2023/07/28 03:18:36;;;;;;;2.90;2.50;;;;;;;;;;5047772;28;20044;-84
2023/07/28 03:21:21;;;;;;;5.50;3.00;;;;;;;;;;5061893;28;20559;-83
2023/07/28 03:24:06;;;;;;;3.22;2.80;;;;;;;;;;5061149;28;20045;-83
2023/07/28 03:26:52;;;;;;;3.90;3.17;;;;;;;;;;5061433;28;20060;-83
2023/07/28 03:29:36;;;;;;;6.50;3.30;;;;;;;;;;5061354;28;20041;-83
2023/07/28 03:32:24;;;;;;;3.67;2.95;;;;;;;;;;5061606;28;20045;-83
2023/07/28 03:35:10;;;;;;;3.92;3.22;;;;;;;;;;5056642;28;20052;-84
2023/07/28 03:38:00;;;;;;;7.82;3.30;;;;;;;;;;5060868;28;20041;-82
2023/07/28 03:40:46;;;;;;;4.95;3.40;;;;;;;;;;5061102;28;20044;-82
2023/07/28 03:43:32;;;;;;;3.47;2.58;;;;;;;;;;5061117;28;20052;-82
2023/07/28 03:46:17;;;;;;;4.13;2.88;;;;;;;;;;5061152;28;20045;-83
2023/07/28 03:49:02;;;;;;;5.03;3.03;;;;;;;;;;5060967;28;20049;-83
2023/07/28 03:51:48;;;;;;;3.50;2.97;;;;;;;;;;5046751;28;20049;-82
2023/07/28 03:54:33;;;;;;;4.47;3.00;;;;;;;;;;5061171;28;20049;-83
2023/07/28 03:57:18;;;;;;;3.30;3.00;;;;;;;;;;5046435;28;20045;-82
2023/07/28 04:00:06;;;;;;;3.53;2.80;;;;;;;;;;5054821;28;20048;-83
2023/07/28 04:02:57;;;;;;;5.28;3.08;;;;;;;;;;5054707;28;20049;-83
2023/07/28 04:05:43;;;;;;;4.80;3.13;;;;;;;;;;5060459;28;20060;-83
2023/07/28 04:08:28;;;;;;;4.75;2.88;;;;;;;;;;5060495;28;20063;-83
2023/07/28 04:11:13;;;;;;;4.28;3.30;;;;;;;;;;5055168;28;20392;-82
2023/07/28 04:14:00;;;;;;;5.57;3.17;;;;;;;;;;5060155;28;20041;-82
2023/07/28 04:16:45;;;;;;;5.78;3.28;;;;;;;;;;5054668;28;20041;-83
2023/07/28 04:19:33;;;;;;;5.20;3.17;;;;;;;;;;5060171;28;20586;-85
2023/07/28 04:22:21;;;;;;;7.28;2.88;;;;;;;;;;5046649;28;20053;-83
2023/07/28 04:25:07;;;;;;;6.10;3.40;;;;;;;;;;5060284;28;20048;-83
2023/07/28 04:27:55;;;;;;;10.43;3.22;;;;;;;;;;5060003;28;20041;-85
2023/07/28 04:30:42;;;;;;;8.43;3.03;;;;;;;;;;5053582;28;20405;-82
2023/07/28 04:33:36;;;;;;;4.07;2.78;;;;;;;;;;5047061;28;20481;-83
2023/07/28 04:36:21;;;;;;;6.85;3.00;;;;;;;;;;5060238;28;20045;-82
2023/07/28 04:39:07;;;;;;;7.78;2.70;;;;;;;;;;5053464;28;20337;-82
2023/07/28 04:41:53;;;;;;;6.05;2.90;;;;;;;;;;5052976;28;20481;-82
2023/07/28 04:44:41;;;;;;;5.65;3.58;;;;;;;;;;5046563;28;20045;-81
2023/07/28 04:47:26;;;;;;;8.15;3.42;;;;;;;;;;5045246;28;20412;-83
2023/07/28 04:50:11;;;;;;;5.40;2.97;;;;;;;;;;5060242;28;20048;-85
2023/07/28 04:53:17;;;;;;;6.68;3.20;;;;;;;;;;5053429;28;20041;-86
2023/07/28 04:56:28;;;;;;;3.92;3.00;;;;;;;;;;5060912;28;20040;-82
2023/07/28 04:59:14;;;;;;;5.53;3.05;;;;;;;;;;5054268;28;20045;-84
2023/07/28 05:02:00;;;;;;;8.38;3.00;;;;;;;;;;5045886;28;20052;-84
2023/07/28 05:04:45;;;;;;;4.60;2.97;;;;;;;;;;5047082;28;20041;-83
2023/07/28 05:07:31;;;;;;;6.85;3.10;;;;;;;;;;5053545;28;20053;-85
2023/07/28 05:10:16;;;;;;;8.52;3.42;;;;;;;;;;5070176;28;20049;-83
2023/07/28 05:13:04;;;;;;;8.25;3.15;;;;;;;;;;5046459;28;20074;-84
2023/07/28 05:15:50;;;;;;;7.75;2.83;;;;;;;;;;5045349;28;20061;-85
2023/07/28 05:18:46;;;;;;;8.35;3.10;;;;;;;;;;5046887;28;20045;-88
2023/07/28 05:21:55;;;;;;;5.07;2.90;;;;;;;;;;5041603;28;20053;-87
2023/07/28 05:24:47;;;;;;;4.50;2.30;;;;;;;;;;5059529;28;20045;-85
2023/07/28 05:27:33;;;;;;;7.85;2.40;;;;;;;;;;5060205;28;20057;-88
2023/07/28 05:30:18;;;;;;;4.90;2.40;;;;;;;;;;5046041;28;20045;-86
2023/07/28 05:33:04;;;;;;;6.88;2.15;;;;;;;;;;5045607;28;20048;-85
2023/07/28 05:36:05;;;;;;;2.60;2.03;;;;;;;;;;5047375;28;20045;-87
2023/07/28 05:38:53;;;;;;;6.18;2.50;;;;;;;;;;5045515;28;20052;-87
2023/07/28 05:41:39;;;;;;;6.38;2.30;;;;;;;;;;5045234;28;20400;-85
2023/07/28 05:44:27;;;;;;;6.40;2.22;;;;;;;;;;5045644;28;20044;-86
2023/07/28 05:47:13;;;;;;;3.47;2.40;;;;;;;;;;5045621;28;20056;-85
2023/07/28 05:49:59;;;;;;;5.22;2.45;;;;;;;;;;5059338;28;20487;-87
2023/07/28 05:52:44;;;;;;;4.68;2.13;;;;;;;;;;5059450;28;20044;-83
2023/07/28 05:55:30;;;;;;;5.90;2.25;;;;;;;;;;5059542;28;20044;-85
2023/07/28 05:58:15;;;;;;;7.72;2.38;;;;;;;;;;5053744;28;20484;-83
2023/07/28 06:01:01;;;;;;;3.72;2.80;;;;;;;;;;5050261;28;20045;-85
2023/07/28 06:04:24;;;;;;;5.10;2.50;;;;;;;;;;5057222;28;20044;-84
2023/07/28 06:07:14;;;;;;;6.88;2.63;;;;;;;;;;5047422;28;20049;-85
2023/07/28 06:10:00;;;;;;;4.40;2.40;;;;;;;;;;5043883;28;20404;-88
2023/07/28 06:12:46;;;;;;;5.00;2.40;;;;;;;;;;5045800;28;20049;-85
2023/07/28 06:15:34;;;;;;;3.63;2.40;;;;;;;;;;5045670;28;20044;-87
2023/07/28 06:18:22;;;;;;;4.35;2.67;;;;;;;;;;5045219;28;20045;-88
2023/07/28 06:21:13;;;;;;;4.03;2.47;;;;;;;;;;5045952;28;20078;-86
2023/07/28 06:23:58;;;;;;;4.88;2.70;;;;;;;;;;5044720;28;20053;-86
2023/07/28 06:26:44;;;;;;;7.63;2.65;;;;;;;;;;5044775;28;20053;-85
2023/07/28 06:29:29;;;;;;;4.90;2.50;;;;;;;;;;5046981;28;20045;-84
2023/07/28 06:32:15;;;;;;;4.53;3.10;;;;;;;;;;5062288;28;20044;-84
2023/07/28 06:35:01;;;;;;;7.05;2.83;;;;;;;;;;5062612;28;20492;-86
2023/07/28 06:37:46;;;;;;;7.43;3.83;;;;;;;;;;5056286;28;20049;-86
2023/07/28 06:40:32;;;;;;;9.82;3.83;;;;;;;;;;5062003;28;20044;-84
2023/07/28 06:43:18;;;;;;;9.07;3.63;;;;;;;;;;5061811;28;20476;-83
2023/07/28 06:46:06;;;;;;;8.98;3.28;;;;;;;;;;5048324;28;20053;-84
2023/07/28 06:48:52;;;;;;;6.72;3.03;;;;;;;;;;5048636;28;20480;-86
2023/07/28 06:51:37;;;;;;;9.07;3.25;;;;;;;;;;5048367;28;20045;-86
2023/07/28 06:54:22;;;;;;;6.25;4.10;;;;;;;;;;5047699;28;20053;-83
2023/07/28 06:57:07;;;;;;;8.45;3.83;;;;;;;;;;5056279;28;20045;-85
2023/07/28 06:59:53;;;;;;;5.40;3.38;;;;;;;;;;5055145;28;20045;-84
2023/07/28 07:02:39;;;;;;;7.22;4.00;;;;;;;;;;5061896;28;20048;-86
2023/07/28 07:05:24;;;;;;;9.48;4.90;;;;;;;;;;5048506;28;20048;-86
2023/07/28 07:08:09;;;;;;;8.38;3.83;;;;;;;;;;5054883;28;20411;-87
2023/07/28 07:10:56;;;;;;;6.00;3.20;;;;;;;;;;5054665;28;20040;-85
2023/07/28 07:13:42;;;;;;;6.18;2.92;;;;;;;;;;5061821;28;20037;-84
2023/07/28 07:16:27;;;;;;;14.05;6.55;;;;;;;;;;5062309;28;20045;-88
2023/07/28 07:19:13;;;;;;;6.18;3.60;;;;;;;;;;5061628;28;20044;-88
2023/07/28 07:21:58;;;;;;;5.60;3.17;;;;;;;;;;5061407;28;20041;-86
2023/07/28 07:24:43;;;;;;;8.43;3.15;;;;;;;;;;5056048;28;20411;-86
2023/07/28 07:27:29;;;;;;;5.80;3.10;;;;;;;;;;5061511;28;20476;-87
2023/07/28 07:30:14;;;;;;;10.10;3.40;;;;;;;;;;5055247;28;20044;-86
2023/07/28 07:33:00;;;;;;;7.15;3.10;;;;;;;;;;5050503;28;20049;-84
2023/07/28 07:35:46;;;;;;;5.38;3.10;;;;;;;;;;5048890;28;20407;-82
2023/07/28 07:38:31;;;;;;;7.32;3.08;;;;;;;;;;5058983;28;20045;-87
2023/07/28 07:41:20;;;;;;;9.23;3.47;;;;;;;;;;5065997;28;20049;-84
2023/07/28 07:44:05;;;;;;;5.15;3.13;;;;;;;;;;5080408;28;20053;-83
2023/07/28 07:46:51;;;;;;;5.00;2.90;;;;;;;;;;5066842;28;20500;-87
2023/07/28 07:49:37;;;;;;;8.15;3.33;;;;;;;;;;5056811;28;20041;-85
2023/07/28 07:52:22;;;;;;;4.72;2.90;;;;;;;;;;5061162;28;20046;-86
2023/07/28 07:55:11;;;;;;;10.30;3.53;;;;;;;;;;5063108;28;20053;-84
2023/07/28 07:57:57;;;;;;;5.68;3.30;;;;;;;;;;5060379;28;20045;-82
2023/07/28 08:01:11;;;;;;;6.65;3.45;;;;;;;;;;5055268;28;20488;-86
2023/07/28 08:03:56;;;;;;;5.80;3.38;;;;;;;;;;5050257;28;20037;-84
2023/07/28 08:06:42;;;;;;;4.20;3.05;;;;;;;;;;5054385;28;20049;-84
2023/07/28 08:09:28;;;;;;;176.60;126.20;;;;;;;;;;5055234;28;20404;-85
2023/07/28 08:12:15;;;;;;;129.27;100.80;;;;;;;;;;5061294;28;20052;-86
2023/07/28 08:15:00;;;;;;;10.80;6.20;;;;;;;;;;5054971;28;20045;-85
2023/07/28 08:17:45;;;;;;;7.45;4.88;;;;;;;;;;5059968;28;20044;-84
2023/07/28 08:20:31;;;;;;;7.22;3.55;;;;;;;;;;5055370;28;20037;-83
2023/07/28 08:23:17;;;;;;;10.43;4.70;;;;;;;;;;5060446;28;20044;-84
2023/07/28 08:26:03;;;;;;;6.05;2.95;;;;;;;;;;5055575;28;20481;-85
2023/07/28 08:28:48;;;;;;;5.57;3.38;;;;;;;;;;5060842;28;20049;-84
2023/07/28 08:31:34;;;;;;;6.20;3.30;;;;;;;;;;5046900;28;20404;-85
2023/07/28 08:34:19;;;;;;;9.02;3.47;;;;;;;;;;5046781;28;20477;-85
2023/07/28 08:37:05;;;;;;;4.45;3.20;;;;;;;;;;5052636;28;20037;-85
2023/07/28 08:39:51;;;;;;;6.75;3.30;;;;;;;;;;5060439;28;20049;-85
2023/07/28 08:42:39;;;;;;;7.28;3.70;;;;;;;;;;5047566;28;20046;-86
2023/07/28 08:45:24;;;;;;;10.32;3.55;;;;;;;;;;5046570;28;20045;-85
2023/07/28 08:48:11;;;;;;;5.15;3.30;;;;;;;;;;5051555;28;20052;-85
2023/07/28 08:50:56;;;;;;;4.80;3.30;;;;;;;;;;5054007;28;20045;-85
2023/07/28 08:53:42;;;;;;;6.65;3.35;;;;;;;;;;5061370;28;20423;-84
2023/07/28 08:56:29;;;;;;;9.98;3.20;;;;;;;;;;5052992;28;20041;-84
2023/07/28 08:59:22;;;;;;;6.20;3.38;;;;;;;;;;5045649;28;20045;-83
2023/07/28 09:02:10;;;;;;;6.20;3.33;;;;;;;;;;5060828;28;20049;-82
2023/07/28 09:04:55;;;;;;;7.28;3.22;;;;;;;;;;5052633;28;20045;-83
2023/07/28 09:07:58;;;;;;;8.98;3.83;;;;;;;;;;5042729;28;20040;-86
2023/07/28 09:10:45;;;;;;;6.40;3.53;;;;;;;;;;5047737;28;21276;-85
2023/07/28 09:13:56;;;;;;;8.90;3.85;;;;;;;;;;5047121;28;20099;-86
2023/07/28 09:16:46;;;;;;;9.30;3.78;;;;;;;;;;5056553;28;20057;-87
2023/07/28 09:19:31;;;;;;;8.10;3.58;;;;;;;;;;5050658;28;20488;-83
2023/07/28 09:22:18;;;;;;;5.68;3.70;;;;;;;;;;5048731;28;20434;-85
2023/07/28 09:25:15;;;;;;;9.07;3.67;;;;;;;;;;5050075;28;20049;-85
2023/07/28 09:28:01;;;;;;;6.90;3.38;;;;;;;;;;5049277;28;20048;-84
2023/07/28 09:30:49;;;;;;;9.18;3.60;;;;;;;;;;5035134;28;20053;-81
2023/07/28 09:33:38;;;;;;;8.10;3.67;;;;;;;;;;5054475;28;20503;-82
2023/07/28 09:36:25;;;;;;;7.50;3.80;;;;;;;;;;5048671;28;20045;-82
2023/07/28 09:39:10;;;;;;;8.25;3.40;;;;;;;;;;5049854;28;20045;-84
2023/07/28 09:41:59;;;;;;;9.15;3.75;;;;;;;;;;5048699;28;20041;-85
2023/07/28 09:44:44;;;;;;;7.35;3.10;;;;;;;;;;5054989;28;20045;-83
2023/07/28 09:47:31;;;;;;;5.25;3.30;;;;;;;;;;5055299;28;20481;-85
2023/07/28 09:50:18;;;;;;;4.40;2.92;;;;;;;;;;5050481;28;20033;-84
2023/07/28 09:53:03;;;;;;;6.10;3.10;;;;;;;;;;5053085;28;20500;-83
2023/07/28 09:55:50;;;;;;;6.75;2.97;;;;;;;;;;5050135;28;20480;-85
2023/07/28 09:58:41;;;;;;;5.68;3.33;;;;;;;;;;5060719;28;20056;-83
2023/07/28 10:01:28;;;;;;;4.50;3.00;;;;;;;;;;5043104;28;20488;-85
2023/07/28 10:04:14;;;;;;;11.63;3.40;;;;;;;;;;5051794;28;20045;-84
2023/07/28 10:07:01;;;;;;;6.85;2.83;;;;;;;;;;5047686;28;20392;-84
2023/07/28 10:09:47;;;;;;;4.78;2.78;;;;;;;;;;5053893;28;20041;-84
2023/07/28 10:12:41;;;;;;;7.60;3.05;;;;;;;;;;5045258;28;20045;-84
2023/07/28 10:15:32;;;;;;;6.75;3.03;;;;;;;;;;5044351;28;20504;-82
2023/07/28 10:18:22;;;;;;;4.57;2.58;;;;;;;;;;5049960;28;20041;-83
2023/07/28 10:21:43;;;;;;;6.00;2.85;;;;;;;;;;5058158;28;20045;-89
2023/07/28 10:24:56;;;;;;;5.65;2.83;;;;;;;;;;5047571;28;20041;-87
2023/07/28 10:27:46;;;;;;;4.53;2.70;;;;;;;;;;5051369;28;20049;-84
2023/07/28 10:30:52;;;;;;;4.35;2.58;;;;;;;;;;5051912;28;20057;-83
2023/07/28 10:33:44;;;;;;;5.13;2.40;;;;;;;;;;5051502;28;20033;-85
2023/07/28 10:36:29;;;;;;;7.05;2.40;;;;;;;;;;5050520;28;20044;-85
2023/07/28 10:39:17;;;;;;;4.97;2.53;;;;;;;;;;5050787;28;20044;-84
2023/07/28 10:42:09;;;;;;;5.05;3.13;;;;;;;;;;5057065;28;20463;-83
2023/07/28 10:44:56;;;;;;;6.32;2.58;;;;;;;;;;5056692;28;20040;-85
2023/07/28 10:47:43;;;;;;;8.25;2.70;;;;;;;;;;5050380;28;20041;-85
2023/07/28 10:50:31;;;;;;;4.28;2.53;;;;;;;;;;5050350;28;20037;-80
2023/07/28 10:53:16;;;;;;;7.00;2.55;;;;;;;;;;5053652;28;20045;-85
2023/07/28 10:56:03;;;;;;;6.50;2.50;;;;;;;;;;5045615;28;20037;-82
2023/07/28 10:58:59;;;;;;;6.25;2.63;;;;;;;;;;5045575;28;20053;-86
2023/07/28 11:01:56;;;;;;;4.95;2.53;;;;;;;;;;5054420;28;20049;-87
2023/07/28 11:05:10;;;;;;;7.72;2.25;;;;;;;;;;5053323;28;20041;-89
2023/07/28 11:07:57;;;;;;;4.13;2.22;;;;;;;;;;5033187;28;20044;-82
2023/07/28 11:10:42;;;;;;;6.53;2.20;;;;;;;;;;5034404;28;20488;-84
2023/07/28 11:13:28;;;;;;;4.68;2.28;;;;;;;;;;5055719;28;20049;-81
2023/07/28 11:16:35;;;;;;;5.07;2.33;;;;;;;;;;5056481;28;20037;-83
2023/07/28 11:19:25;;;;;;;6.78;2.33;;;;;;;;;;5052405;28;20048;-83
2023/07/28 11:22:18;;;;;;;5.13;2.15;;;;;;;;;;5041215;28;20411;-82
2023/07/28 11:25:16;;;;;;;6.30;2.35;;;;;;;;;;5046014;28;20052;-83
2023/07/28 11:28:05;;;;;;;2.67;2.08;;;;;;;;;;5044342;28;20041;-88
2023/07/28 11:30:51;;;;;;;4.13;2.20;;;;;;;;;;5050156;28;20057;-82
2023/07/28 11:33:36;;;;;;;3.65;2.05;;;;;;;;;;5044410;28;20049;-83
2023/07/28 11:36:26;;;;;;;4.18;2.00;;;;;;;;;;5044665;28;20044;-83
2023/07/28 11:39:12;;;;;;;3.47;2.20;;;;;;;;;;5044120;28;20045;-83
2023/07/28 11:41:58;;;;;;;4.28;2.30;;;;;;;;;;5049648;28;20057;-81
2023/07/28 11:44:44;;;;;;;3.13;2.10;;;;;;;;;;5039048;28;20049;-83
2023/07/28 11:47:30;;;;;;;2.97;2.03;;;;;;;;;;5048644;28;20045;-84
2023/07/28 11:50:22;;;;;;;5.85;2.65;;;;;;;;;;5050227;28;20037;-82
2023/07/28 11:53:09;;;;;;;2.75;2.15;;;;;;;;;;5051939;28;20053;-85
2023/07/28 11:55:55;;;;;;;4.38;2.20;;;;;;;;;;5043194;28;20052;-83
2023/07/28 11:58:40;;;;;;;6.28;2.20;;;;;;;;;;5053423;28;20056;-85
2023/07/28 12:01:27;;;;;;;5.72;2.40;;;;;;;;;;5056519;28;20404;-82
2023/07/28 12:04:42;;;;;;;3.08;1.92;;;;;;;;;;5050573;28;20048;-83
2023/07/28 12:07:33;;;;;;;4.53;2.20;;;;;;;;;;5055316;28;20041;-83
2023/07/28 12:10:19;;;;;;;3.95;2.15;;;;;;;;;;5050235;28;20053;-86
2023/07/28 12:13:06;;;;;;;3.40;2.10;;;;;;;;;;5055207;28;20052;-81
2023/07/28 12:15:51;;;;;;;4.97;1.92;;;;;;;;;;5054832;28;20053;-82
2023/07/28 12:18:37;;;;;;;2.92;2.05;;;;;;;;;;5048484;28;20041;-84
2023/07/28 12:21:22;;;;;;;3.40;1.95;;;;;;;;;;5049947;28;20033;-82
2023/07/28 12:24:08;;;;;;;6.38;2.45;;;;;;;;;;5042110;28;20048;-85
2023/07/28 12:26:55;;;;;;;4.05;2.17;;;;;;;;;;5054896;28;20045;-81
2023/07/28 12:29:41;;;;;;;3.83;2.10;;;;;;;;;;5049235;28;20041;-85
2023/07/28 12:32:26;;;;;;;3.85;2.22;;;;;;;;;;5046157;28;20045;-83
2023/07/28 12:35:11;;;;;;;3.25;2.10;;;;;;;;;;5050607;28;20685;-80
2023/07/28 12:38:01;;;;;;;2.83;1.98;;;;;;;;;;5044716;28;20053;-81
2023/07/28 12:40:48;;;;;;;4.43;2.17;;;;;;;;;;5046002;28;20053;-83
2023/07/28 12:43:34;;;;;;;4.20;2.00;;;;;;;;;;5038089;28;20041;-83
2023/07/28 12:46:20;;;;;;;2.75;1.92;;;;;;;;;;5052491;28;20049;-87
2023/07/28 12:49:07;;;;;;;4.32;2.15;;;;;;;;;;5045603;28;20053;-83
2023/07/28 12:51:53;;;;;;;5.20;2.10;;;;;;;;;;5052378;28;20563;-81
2023/07/28 12:54:39;;;;;;;4.50;2.17;;;;;;;;;;5047366;28;20477;-81
2023/07/28 12:57:25;;;;;;;3.53;2.13;;;;;;;;;;5052377;28;20045;-82
2023/07/28 13:00:15;;;;;;;3.67;2.10;;;;;;;;;;5060176;28;20037;-84
2023/07/28 13:03:00;;;;;;;5.80;2.47;;;;;;;;;;5052071;28;20041;-83
2023/07/28 13:05:48;;;;;;;3.05;1.92;;;;;;;;;;5047120;28;20041;-81
2023/07/28 13:08:33;;;;;;;6.07;2.38;;;;;;;;;;5038072;28;20044;-78
2023/07/28 13:11:18;;;;;;;3.05;2.28;;;;;;;;;;5046995;28;20052;-83
2023/07/28 13:14:04;;;;;;;6.65;2.40;;;;;;;;;;5051681;28;20045;-81
2023/07/28 13:16:49;;;;;;;5.78;2.20;;;;;;;;;;5046520;28;20045;-82
2023/07/28 13:19:36;;;;;;;6.20;2.30;;;;;;;;;;5045627;28;20044;-82
2023/07/28 13:22:21;;;;;;;8.20;2.13;;;;;;;;;;5052292;28;20045;-82
2023/07/28 13:29:37;;;;;;;3.42;2.60;;;;;;;;;;5047945;28;20049;-84
2023/07/28 13:32:25;;;;;;;3.95;2.47;;;;;;;;;;4932398;29;20518;-78
2023/07/28 13:35:11;;;;;;;5.53;2.35;;;;;;;;;;4935408;29;20055;-79
2023/07/28 13:37:56;;;;;;;5.28;2.13;;;;;;;;;;4936934;29;20052;-77
2023/07/28 13:40:42;;;;;;;11.55;7.30;;;;;;;;;;4938581;29;20051;-81
2023/07/28 13:43:27;;;;;;;3.47;2.40;;;;;;;;;;4939451;29;20051;-82
2023/07/28 13:46:13;;;;;;;3.97;2.40;;;;;;;;;;4939147;29;20044;-84
2023/07/28 13:48:59;;;;;;;2.83;2.15;;;;;;;;;;4931467;29;20425;-83
2023/07/28 13:51:44;;;;;;;3.85;2.20;;;;;;;;;;4939653;29;20047;-83
2023/07/28 13:54:30;;;;;;;3.15;2.08;;;;;;;;;;4938098;29;20051;-84
2023/07/28 13:57:15;;;;;;;3.50;2.10;;;;;;;;;;4944989;29;20044;-83
2023/07/28 14:00:01;;;;;;;3.78;1.98;;;;;;;;;;4940403;29;20044;-84
2023/07/28 14:02:49;;;;;;;5.13;3.00;;;;;;;;;;4925019;29;20052;-83
2023/07/28 14:05:35;;;;;;;6.65;2.58;;;;;;;;;;4944254;29;20055;-83
2023/07/28 14:08:21;;;;;;;5.40;2.67;;;;;;;;;;4941486;29;20044;-82
2023/07/28 14:11:06;;;;;;;5.10;2.55;;;;;;;;;;4943813;29;20048;-82
2023/07/28 14:13:52;;;;;;;4.80;2.75;;;;;;;;;;4949821;29;20040;-85
2023/07/28 14:16:37;;;;;;;4.30;2.25;;;;;;;;;;4949905;29;20047;-83
2023/07/28 14:19:23;;;;;;;3.92;2.70;;;;;;;;;;4943605;29;20055;-83
2023/07/28 14:22:09;;;;;;;5.78;2.70;;;;;;;;;;4944052;29;20044;-81
2023/07/28 14:24:54;;;;;;;3.28;1.98;;;;;;;;;;4950242;29;20044;-83
2023/07/28 14:27:41;;;;;;;5.68;2.00;;;;;;;;;;4943201;29;20047;-82
2023/07/28 14:30:26;;;;;;;2.38;1.98;;;;;;;;;;4938282;29;20494;-83
2023/07/28 14:33:16;;;;;;;2.97;2.17;;;;;;;;;;4937882;29;20044;-83
2023/07/28 14:36:01;;;;;;;5.28;2.58;;;;;;;;;;4943930;29;20043;-83
2023/07/28 14:38:47;;;;;;;3.38;2.25;;;;;;;;;;4936462;29;20055;-83
2023/07/28 14:41:33;;;;;;;3.30;2.25;;;;;;;;;;4943113;29;20063;-84
2023/07/28 14:44:21;;;;;;;4.75;1.90;;;;;;;;;;4930145;29;20055;-84
2023/07/28 14:47:07;;;;;;;2.55;2.03;;;;;;;;;;4930023;29;20044;-79
2023/07/28 14:49:51;;;;;;;5.63;2.05;;;;;;;;;;4935042;29;20490;-78
2023/07/28 14:52:39;;;;;;;3.72;2.20;;;;;;;;;;4937333;29;20406;-78
2023/07/28 14:55:25;;;;;;;2.97;2.03;;;;;;;;;;4944520;29;20494;-82
2023/07/28 14:58:11;;;;;;;6.32;4.07;;;;;;;;;;4945161;29;20047;-82
2023/07/28 15:01:00;;;;;;;4.47;2.53;;;;;;;;;;4944679;29;20044;-81
2023/07/28 15:03:46;;;;;;;2.55;1.90;;;;;;;;;;4939260;29;20052;-82
2023/07/28 15:06:32;;;;;;;11.50;4.75;;;;;;;;;;4939269;29;20398;-82
2023/07/28 15:09:22;;;;;;;8.43;5.25;;;;;;;;;;4938687;29;20490;-81
2023/07/28 15:12:07;;;;;;;5.50;2.20;;;;;;;;;;4938567;29;20048;-81
2023/07/28 15:14:53;;;;;;;4.78;2.50;;;;;;;;;;4938284;29;20047;-83
2023/07/28 15:17:38;;;;;;;5.28;2.22;;;;;;;;;;4943950;29;20437;-83
2023/07/28 15:20:24;;;;;;;5.90;3.33;;;;;;;;;;4936872;29;20047;-84
2023/07/28 15:23:10;;;;;;;4.47;2.20;;;;;;;;;;4952471;29;20047;-82
2023/07/28 15:25:57;;;;;;;2.70;1.77;;;;;;;;;;4955811;28;20413;-83
2023/07/28 15:28:43;;;;;;;3.80;1.95;;;;;;;;;;4938239;29;20047;-83
2023/07/28 15:31:28;;;;;;;4.63;1.85;;;;;;;;;;4936284;29;20048;-81
2023/07/28 15:34:14;;;;;;;2.47;2.00;;;;;;;;;;4937158;29;20048;-81
2023/07/28 15:37:03;;;;;;;3.72;1.65;;;;;;;;;;4937776;29;20052;-79
2023/07/28 15:39:48;;;;;;;5.72;2.00;;;;;;;;;;4936826;29;20047;-80
2023/07/28 15:42:41;;;;;;;12.25;2.10;;;;;;;;;;4938148;29;20044;-84
2023/07/28 15:45:27;;;;;;;4.73;2.00;;;;;;;;;;4938191;29;20039;-79
2023/07/28 15:48:19;;;;;;;3.05;1.63;;;;;;;;;;4943739;29;20465;-81
2023/07/28 15:51:05;;;;;;;17.92;11.45;;;;;;;;;;4943029;29;20052;-82
2023/07/28 15:53:51;;;;;;;6.95;2.35;;;;;;;;;;4937671;29;20465;-81
2023/07/28 15:56:38;;;;;;;5.55;2.00;;;;;;;;;;4941482;29;20047;-81
2023/07/28 15:59:24;;;;;;;2.45;1.70;;;;;;;;;;4937025;29;20044;-84
2023/07/28 16:02:10;;;;;;;3.33;1.92;;;;;;;;;;4936579;29;20044;-80
2023/07/28 16:04:55;;;;;;;3.45;1.92;;;;;;;;;;4937401;29;20059;-82
2023/07/28 16:07:42;;;;;;;8.18;4.63;;;;;;;;;;4944134;29;20393;-81
2023/07/28 16:10:32;;;;;;;6.22;2.15;;;;;;;;;;4942950;29;20052;-79
2023/07/28 16:13:18;;;;;;;5.13;1.88;;;;;;;;;;4941922;29;20044;-79
2023/07/28 16:16:03;;;;;;;2.35;1.88;;;;;;;;;;4935287;29;20052;-81
2023/07/28 16:18:49;;;;;;;4.82;2.10;;;;;;;;;;4935019;29;20051;-80
2023/07/28 16:21:35;;;;;;;3.28;2.10;;;;;;;;;;4939602;29;20044;-81
2023/07/28 16:24:20;;;;;;;4.05;1.75;;;;;;;;;;4935316;29;20059;-81
2023/07/28 16:27:07;;;;;;;6.28;2.20;;;;;;;;;;4940354;29;20513;-81
2023/07/28 16:29:52;;;;;;;6.55;3.92;;;;;;;;;;4940959;29;20056;-82
2023/07/28 16:32:39;;;;;;;2.97;2.00;;;;;;;;;;4934397;29;20048;-80
2023/07/28 16:35:24;;;;;;;5.70;2.72;;;;;;;;;;4935592;29;20052;-81
2023/07/28 16:38:10;;;;;;;8.50;3.00;;;;;;;;;;4934212;29;20047;-82
2023/07/28 16:40:56;;;;;;;8.13;3.25;;;;;;;;;;4935405;29;20060;-87
2023/07/28 16:43:41;;;;;;;5.80;2.42;;;;;;;;;;4934124;29;20048;-86
2023/07/28 16:46:26;;;;;;;4.47;2.60;;;;;;;;;;4939988;29;20048;-86
2023/07/28 16:49:12;;;;;;;4.78;2.30;;;;;;;;;;4935528;29;20043;-86